Time;durP1;ratioP1;P1;durP2;ratioP2;P2;SDS_P1;SDS_P2;PMS_P1;PMS_P2;Temp;Humidity;BMP_temperature;BMP_pressure;BME280_temperature;BME280_humidity;BME280_pressure;Samples;Min_cycle;Max_cycle;Signal;HPM_P1;HPM_P2
2022/03/16 00:02:23;;;;;;;60.40;28.30;;;;;;;4.87;58.53;98760.63;106074;1273;137962;-76
2022/03/16 00:04:51;;;;;;;59.50;28.30;;;;;;;4.89;58.61;98756.11;106192;1273;22541;-76
2022/03/16 00:07:19;;;;;;;58.20;28.40;;;;;;;4.89;58.65;98756.02;105923;1274;137876;-76
2022/03/16 00:09:47;;;;;;;57.50;28.10;;;;;;;4.90;58.66;98753.96;106253;1273;25260;-76
2022/03/16 00:12:14;;;;;;;65.50;30.90;;;;;;;4.90;58.53;98751.38;106023;1274;24258;-77
2022/03/16 00:14:41;;;;;;;59.90;30.70;;;;;;;4.91;58.29;98752.92;106038;1273;137788;-76
2022/03/16 00:17:09;;;;;;;62.30;30.80;;;;;;;4.92;58.55;98748.52;106148;1273;24279;-76
2022/03/16 00:19:35;;;;;;;64.70;31.40;;;;;;;4.91;58.81;98750.52;106029;1273;138769;-76
2022/03/16 00:22:04;;;;;;;69.60;34.30;;;;;;;4.91;58.63;98749.15;106250;1273;24456;-77
2022/03/16 00:24:31;;;;;;;81.10;38.80;;;;;;;4.91;59.43;98750.80;106293;1273;22567;-77
2022/03/16 00:26:57;;;;;;;78.40;36.40;;;;;;;4.89;59.43;98749.64;106043;1274;137791;-77
2022/03/16 00:29:24;;;;;;;79.00;36.60;;;;;;;4.88;59.17;98746.89;106181;1273;22542;-77
2022/03/16 00:31:52;;;;;;;75.30;37.80;;;;;;;4.85;59.70;98747.21;106171;1273;137922;-77
2022/03/16 00:34:19;;;;;;;84.00;39.60;;;;;;;4.82;60.07;98743.33;105990;1274;22556;-77
2022/03/16 00:36:47;;;;;;;75.20;37.30;;;;;;;4.79;60.24;98741.09;105979;1274;22664;-76
2022/03/16 00:39:13;;;;;;;67.40;34.70;;;;;;;4.76;59.89;98739.91;105997;1273;137873;-76
2022/03/16 00:41:40;;;;;;;81.00;37.30;;;;;;;4.73;60.11;98735.79;106028;1277;25604;-76
2022/03/16 00:44:07;;;;;;;73.70;34.80;;;;;;;4.70;60.08;98734.41;105941;1276;138063;-76
2022/03/16 00:46:34;;;;;;;77.90;36.90;;;;;;;4.67;60.12;98732.27;106044;1274;22717;-76
2022/03/16 00:49:02;;;;;;;71.70;35.80;;;;;;;4.66;59.85;98734.09;106306;1274;25330;-76
2022/03/16 00:51:29;;;;;;;66.80;31.00;;;;;;;4.64;59.94;98729.64;106348;1273;137695;-76
2022/03/16 00:53:55;;;;;;;72.70;36.90;;;;;;;4.62;61.12;98727.64;106082;1274;22564;-76
2022/03/16 00:56:22;;;;;;;70.90;33.90;;;;;;;4.57;61.38;98724.25;105816;1274;137801;-78
2022/03/16 00:58:49;;;;;;;71.50;36.70;;;;;;;4.53;62.11;98724.77;106216;1273;22582;-77
2022/03/16 01:01:16;;;;;;;76.10;36.30;;;;;;;4.48;62.22;98723.96;106314;1273;138401;-76
2022/03/16 01:03:43;;;;;;;77.80;37.50;;;;;;;4.45;62.16;98724.02;106085;1273;22621;-76
2022/03/16 01:06:15;;;;;;;72.00;35.70;;;;;;;4.44;62.12;98726.55;106208;1273;22556;-77
2022/03/16 01:08:45;;;;;;;71.40;38.00;;;;;;;4.43;62.06;98723.98;106067;1273;138154;-76
2022/03/16 01:11:12;;;;;;;76.80;35.50;;;;;;;4.41;61.68;98719.69;106132;1273;22559;-76
2022/03/16 01:13:40;;;;;;;75.80;36.60;;;;;;;4.41;61.43;98715.61;105929;1274;137824;-76
2022/03/16 01:16:08;;;;;;;70.10;35.50;;;;;;;4.41;61.00;98711.39;106043;1274;22700;-76
2022/03/16 01:18:36;;;;;;;70.10;34.20;;;;;;;4.43;61.00;98718.41;106150;1273;23374;-76
2022/03/16 01:21:05;;;;;;;81.40;36.90;;;;;;;4.44;60.84;98718.42;106059;1273;137770;-76
2022/03/16 01:23:37;;;;;;;64.20;33.60;;;;;;;4.44;60.65;98715.30;106106;1273;22544;-76
2022/03/16 01:26:04;;;;;;;59.20;30.70;;;;;;;4.46;60.77;98708.10;106044;1273;137743;-76
2022/03/16 01:28:31;;;;;;;68.60;33.20;;;;;;;4.46;61.31;98706.95;106254;1273;24489;-76
2022/03/16 01:31:00;;;;;;;73.90;38.00;;;;;;;4.44;63.05;98710.15;106036;1274;25432;-76
2022/03/16 01:33:26;;;;;;;84.90;40.30;;;;;;;4.34;64.05;98706.66;106115;1274;137432;-76
2022/03/16 01:35:52;;;;;;;88.70;43.00;;;;;;;4.27;64.71;98707.70;106215;1273;25491;-76
2022/03/16 01:38:18;;;;;;;87.70;41.90;;;;;;;4.16;65.18;98697.67;106010;1274;138380;-76
2022/03/16 01:40:45;;;;;;;78.10;38.00;;;;;;;4.10;65.17;98693.31;105968;1274;22716;-76
2022/03/16 01:43:11;;;;;;;79.10;37.60;;;;;;;4.06;65.17;98684.11;106020;1273;138209;-76
2022/03/16 01:45:46;;;;;;;80.10;39.80;;;;;;;4.03;65.13;98692.95;106189;1274;22815;-77
2022/03/16 01:48:12;;;;;;;90.00;43.10;;;;;;;4.02;64.99;98692.33;106050;1274;24265;-76
2022/03/16 01:50:38;;;;;;;84.00;41.10;;;;;;;4.04;65.02;98700.21;106223;1273;137721;-76
2022/03/16 01:53:05;;;;;;;79.50;39.20;;;;;;;4.04;64.84;98699.42;106192;1273;22640;-76
2022/03/16 01:55:46;;;;;;;80.20;38.30;;;;;;;4.06;64.61;98689.49;106014;1273;137838;-76
2022/03/16 01:58:13;;;;;;;77.30;36.50;;;;;;;4.08;64.15;98677.64;106160;1273;22586;-76
2022/03/16 02:00:40;;;;;;;71.10;35.90;;;;;;;4.10;63.91;98673.00;106264;1273;22551;-76
2022/03/16 02:03:07;;;;;;;75.30;36.60;;;;;;;4.12;63.83;98672.86;105863;1273;137606;-76
2022/03/16 02:05:35;;;;;;;70.30;35.10;;;;;;;4.16;63.74;98678.53;106376;1274;25358;-76
2022/03/16 02:08:04;;;;;;;72.70;36.70;;;;;;;4.17;63.79;98682.43;106092;1273;137853;-76
2022/03/16 02:10:46;;;;;;;74.40;36.90;;;;;;;4.19;63.71;98685.79;106100;1273;22577;-77
2022/03/16 02:13:12;;;;;;;69.40;34.40;;;;;;;4.20;63.57;98688.05;105865;1276;137778;-77
2022/03/16 02:15:39;;;;;;;64.80;33.40;;;;;;;4.22;63.37;98686.77;106059;1276;22565;-77
2022/03/16 02:18:07;;;;;;;63.40;33.50;;;;;;;4.23;63.19;98686.02;105989;1274;22577;-77
2022/03/16 02:20:50;;;;;;;65.40;34.10;;;;;;;4.24;62.97;98684.01;105981;1273;137739;-77
2022/03/16 02:23:17;;;;;;;69.20;34.40;;;;;;;4.24;62.83;98688.98;106169;1274;22635;-77
2022/03/16 02:25:58;;;;;;;64.00;31.60;;;;;;;4.26;62.90;98685.38;106012;1273;138604;-77
2022/03/16 02:28:25;;;;;;;70.90;34.70;;;;;;;4.27;62.65;98678.42;106002;1274;22675;-77
2022/03/16 02:30:52;;;;;;;60.70;31.20;;;;;;;4.28;62.64;98676.40;106002;1274;22585;-77
2022/03/16 02:33:19;;;;;;;63.80;32.00;;;;;;;4.29;62.48;98675.20;106108;1273;138022;-77
2022/03/16 02:35:46;;;;;;;67.30;33.20;;;;;;;4.31;62.73;98681.42;106181;1274;23933;-78
2022/03/16 02:38:13;;;;;;;64.50;32.40;;;;;;;4.31;62.86;98679.11;106184;1274;137546;-76
2022/03/16 02:40:40;;;;;;;70.40;33.60;;;;;;;4.32;62.86;98682.79;106159;1273;24305;-76
2022/03/16 02:43:06;;;;;;;68.20;34.00;;;;;;;4.31;62.68;98680.52;106217;1273;23484;-76
2022/03/16 02:45:32;;;;;;;71.20;35.00;;;;;;;4.31;62.69;98686.19;106365;1273;137513;-76
2022/03/16 02:47:59;;;;;;;72.80;36.00;;;;;;;4.31;62.47;98679.73;106105;1274;22544;-76
2022/03/16 02:50:25;;;;;;;74.10;36.80;;;;;;;4.31;62.24;98677.61;106243;1273;137859;-75
2022/03/16 02:52:52;;;;;;;62.40;32.40;;;;;;;4.32;62.05;98685.42;106264;1273;24410;-76
2022/03/16 02:55:18;;;;;;;57.80;30.40;;;;;;;4.33;61.80;98685.98;106257;1274;138788;-76
2022/03/16 02:57:45;;;;;;;65.30;31.60;;;;;;;4.35;61.81;98685.35;106453;1273;25368;-76
2022/03/16 03:00:13;;;;;;;65.60;31.50;;;;;;;4.36;61.90;98688.34;106117;1276;22591;-76
2022/03/16 03:02:41;;;;;;;64.50;31.10;;;;;;;4.36;61.88;98690.59;105979;1274;137940;-76
2022/03/16 03:05:08;;;;;;;62.80;31.80;;;;;;;4.37;61.51;98695.02;106171;1273;24225;-77
2022/03/16 03:07:34;;;;;;;61.20;31.20;;;;;;;4.37;61.19;98695.77;106139;1273;138422;-77
2022/03/16 03:10:00;;;;;;;66.00;32.00;;;;;;;4.37;61.19;98698.39;106486;1273;22554;-76
2022/03/16 03:12:27;;;;;;;61.10;29.70;;;;;;;4.37;60.92;98698.02;106247;1273;22554;-76
2022/03/16 03:15:10;;;;;;;55.80;29.70;;;;;;;4.38;60.83;98700.27;105866;1273;137960;-76
2022/03/16 03:17:37;;;;;;;60.30;30.60;;;;;;;4.39;60.39;98703.25;106079;1273;22548;-76
2022/03/16 03:20:04;;;;;;;56.70;27.90;;;;;;;4.41;59.78;98697.62;106084;1273;138128;-76
2022/03/16 03:22:31;;;;;;;56.50;30.50;;;;;;;4.43;59.35;98695.42;105959;1277;22537;-76
2022/03/16 03:24:58;;;;;;;58.80;30.80;;;;;;;4.45;59.25;98694.90;106449;1273;24210;-75
2022/03/16 03:27:25;;;;;;;57.70;29.60;;;;;;;4.45;59.07;98694.11;106287;1273;137671;-75
2022/03/16 03:29:52;;;;;;;56.40;28.60;;;;;;;4.47;58.85;98696.15;106288;1273;22548;-76
2022/03/16 03:32:18;;;;;;;69.70;33.70;;;;;;;4.46;60.03;98699.05;106221;1273;137845;-76
2022/03/16 03:34:47;;;;;;;73.70;37.70;;;;;;;4.44;61.78;98706.77;106233;1274;23322;-76
2022/03/16 03:37:14;;;;;;;72.80;34.50;;;;;;;4.38;62.73;98709.67;106289;1273;137831;-76
2022/03/16 03:39:41;;;;;;;76.30;37.60;;;;;;;4.29;63.28;98705.80;106387;1273;25468;-76
2022/03/16 03:42:08;;;;;;;69.70;34.10;;;;;;;4.22;63.57;98699.52;106189;1274;25494;-75
2022/03/16 03:44:38;;;;;;;59.30;31.60;;;;;;;4.16;63.53;98703.77;106131;1274;137813;-76
2022/03/16 03:47:06;;;;;;;62.00;30.70;;;;;;;4.12;63.71;98705.73;106429;1273;22549;-76
2022/03/16 03:49:37;;;;;;;63.20;31.20;;;;;;;4.12;63.71;98711.16;106109;1273;137938;-77
2022/03/16 03:52:05;;;;;;;67.60;33.30;;;;;;;4.12;63.72;98706.65;106547;1273;25381;-76
2022/03/16 03:54:32;;;;;;;66.80;32.90;;;;;;;4.13;63.80;98705.00;106326;1273;22727;-77
2022/03/16 03:56:58;;;;;;;55.00;28.70;;;;;;;4.12;63.76;98704.67;106117;1273;138235;-77
2022/03/16 03:59:25;;;;;;;50.20;26.90;;;;;;;4.13;63.83;98702.25;106296;1274;24258;-77
2022/03/16 04:01:52;;;;;;;43.90;22.40;;;;;;;4.13;63.83;98698.41;106138;1273;137885;-77
2022/03/16 04:04:19;;;;;;;47.90;24.60;;;;;;;4.17;64.08;98700.45;106467;1274;24305;-77
2022/03/16 04:06:45;;;;;;;48.30;23.70;;;;;;;4.23;64.20;98699.25;106215;1274;23300;-77
2022/03/16 04:09:12;;;;;;;51.40;25.50;;;;;;;4.26;64.16;98701.48;106107;1273;137856;-77
2022/03/16 04:11:39;;;;;;;43.10;22.10;;;;;;;4.28;64.16;98703.85;106024;1274;24324;-77
2022/03/16 04:14:05;;;;;;;31.00;16.40;;;;;;;4.34;64.32;98701.69;106305;1274;138666;-77
2022/03/16 04:16:32;;;;;;;38.70;19.20;;;;;;;4.45;64.40;98701.63;106137;1274;23489;-77
2022/03/16 04:19:13;;;;;;;36.50;19.40;;;;;;;4.56;64.24;98702.96;106060;1274;138452;-77
2022/03/16 04:21:39;;;;;;;41.10;20.60;;;;;;;4.63;64.05;98700.52;106312;1274;22665;-77
2022/03/16 04:24:06;;;;;;;41.20;21.40;;;;;;;4.68;64.02;98699.49;106405;1273;24226;-76
2022/03/16 04:26:33;;;;;;;38.70;18.70;;;;;;;4.72;64.00;98702.13;106310;1273;137785;-76
2022/03/16 04:28:59;;;;;;;36.00;18.30;;;;;;;4.73;64.24;98693.20;105935;1275;24227;-76
2022/03/16 04:31:25;;;;;;;38.20;20.00;;;;;;;4.72;64.50;98681.95;106158;1274;141106;-75
2022/03/16 04:33:52;;;;;;;50.80;24.00;;;;;;;4.71;64.72;98682.58;106723;1273;22569;-75
2022/03/16 04:36:18;;;;;;;41.50;22.20;;;;;;;4.67;64.73;98688.12;106182;1274;22549;-77
2022/03/16 04:38:45;;;;;;;41.50;21.00;;;;;;;4.64;64.74;98689.85;106621;1273;138089;-76
2022/03/16 04:41:11;;;;;;;40.20;21.90;;;;;;;4.63;64.99;98698.06;106263;1274;23130;-76
2022/03/16 04:43:37;;;;;;;42.90;21.40;;;;;;;4.63;65.03;98706.43;106065;1274;137935;-76
2022/03/16 04:46:04;;;;;;;39.20;20.50;;;;;;;4.61;65.20;98713.99;106352;1274;24411;-76
2022/03/16 04:48:30;;;;;;;35.10;17.70;;;;;;;4.60;65.44;98713.48;106175;1274;22557;-78
2022/03/16 04:50:57;;;;;;;31.50;15.40;;;;;;;4.59;65.84;98708.86;106321;1273;137804;-76
2022/03/16 04:53:23;;;;;;;36.10;19.90;;;;;;;4.60;66.33;98701.90;106281;1274;24502;-76
2022/03/16 04:55:49;;;;;;;34.20;17.40;;;;;;;4.66;66.59;98705.25;106253;1274;138220;-75
2022/03/16 04:58:31;;;;;;;28.90;16.80;;;;;;;4.74;66.67;98706.77;106175;1274;24070;-76
2022/03/16 05:00:58;;;;;;;29.40;15.50;;;;;;;4.80;66.63;98710.67;106255;1276;22586;-76
2022/03/16 05:03:24;;;;;;;29.20;15.60;;;;;;;4.86;66.54;98707.92;105923;1275;138110;-76
2022/03/16 05:05:51;;;;;;;28.60;14.80;;;;;;;4.92;66.40;98706.60;105995;1276;22559;-76
2022/03/16 05:08:17;;;;;;;29.70;15.00;;;;;;;4.96;66.42;98704.99;106113;1273;138456;-76
2022/03/16 05:10:43;;;;;;;30.30;15.30;;;;;;;5.00;66.30;98708.73;105999;1273;24220;-76
2022/03/16 05:13:10;;;;;;;27.00;14.50;;;;;;;5.03;66.40;98711.03;106011;1273;25417;-76
2022/03/16 05:15:36;;;;;;;28.20;15.00;;;;;;;5.07;66.37;98717.68;105933;1273;137704;-76
2022/03/16 05:18:02;;;;;;;30.70;15.10;;;;;;;5.10;66.40;98716.46;106318;1274;22711;-76
2022/03/16 05:20:29;;;;;;;35.50;16.80;;;;;;;5.12;66.41;98722.10;106292;1273;138191;-76
2022/03/16 05:22:55;;;;;;;31.50;15.40;;;;;;;5.13;66.05;98724.34;106378;1273;25356;-76
2022/03/16 05:25:25;;;;;;;33.20;16.60;;;;;;;5.13;66.38;98722.32;106344;1273;137938;-76
2022/03/16 05:27:52;;;;;;;34.40;17.10;;;;;;;5.14;66.12;98725.68;106382;1273;22542;-75
2022/03/16 05:30:20;;;;;;;32.50;18.20;;;;;;;5.12;66.27;98724.73;106447;1274;25341;-76
2022/03/16 05:32:46;;;;;;;34.60;17.60;;;;;;;5.12;66.25;98728.39;106256;1273;138421;-76
2022/03/16 05:35:14;;;;;;;37.40;18.10;;;;;;;5.11;66.09;98728.83;106082;1274;22706;-75
2022/03/16 05:37:41;;;;;;;32.70;18.30;;;;;;;5.11;66.06;98729.24;106306;1274;137982;-76
2022/03/16 05:40:09;;;;;;;31.10;16.60;;;;;;;5.11;65.91;98727.64;106145;1274;22701;-76
2022/03/16 05:42:36;;;;;;;28.20;17.40;;;;;;;5.11;66.03;98728.17;106270;1273;24266;-76
2022/03/16 05:45:03;;;;;;;34.60;18.30;;;;;;;5.11;66.08;98723.97;105984;1274;138050;-76
2022/03/16 05:47:29;;;;;;;45.80;20.30;;;;;;;5.11;66.17;98723.48;105973;1274;22715;-77
2022/03/16 05:49:56;;;;;;;46.50;24.20;;;;;;;5.11;66.04;98721.48;105841;1275;138357;-76
2022/03/16 05:52:24;;;;;;;52.20;27.00;;;;;;;5.12;65.99;98720.57;106060;1273;24631;-76
2022/03/16 05:54:53;;;;;;;56.60;25.00;;;;;;;5.15;66.12;98722.24;105938;1277;22561;-78
2022/03/16 05:57:37;;;;;;;48.10;24.70;;;;;;;5.18;66.24;98720.50;105719;1278;137821;-76
2022/03/16 06:00:20;;;;;;;51.50;23.70;;;;;;;5.19;66.22;98720.63;106196;1275;22574;-76
2022/03/16 06:02:49;;;;;;;49.90;23.80;;;;;;;5.22;66.32;98718.48;105974;1274;138238;-76
2022/03/16 06:05:16;;;;;;;40.70;22.30;;;;;;;5.24;66.50;98718.16;106059;1274;24303;-76
2022/03/16 06:07:44;;;;;;;42.00;22.60;;;;;;;5.27;66.46;98723.77;106129;1274;137823;-76
2022/03/16 06:10:15;;;;;;;43.80;22.60;;;;;;;5.29;66.62;98730.96;106311;1273;22599;-75
2022/03/16 06:12:56;;;;;;;38.20;20.60;;;;;;;5.32;66.76;98738.37;106238;1274;22811;-77
2022/03/16 06:15:24;;;;;;;42.30;22.40;;;;;;;5.34;66.77;98742.02;105815;1274;137960;-76
2022/03/16 06:18:00;;;;;;;38.50;22.10;;;;;;;5.36;66.84;98739.66;106491;1274;22686;-76
2022/03/16 06:20:31;;;;;;;35.50;20.90;;;;;;;5.38;66.94;98736.08;106247;1274;137656;-76
2022/03/16 06:22:57;;;;;;;44.40;22.20;;;;;;;5.42;66.91;98732.52;105987;1277;25481;-76
2022/03/16 06:25:27;;;;;;;41.10;21.50;;;;;;;5.46;67.11;98728.38;106154;1274;138488;-77
2022/03/16 06:28:08;;;;;;;37.00;17.60;;;;;;;5.53;67.15;98726.39;106192;1274;24300;-76
2022/03/16 06:30:35;;;;;;;35.20;17.40;;;;;;;5.60;67.34;98720.83;106396;1274;23164;-76
2022/03/16 06:33:01;;;;;;;34.40;17.70;;;;;;;5.67;67.42;98728.06;106197;1274;137756;-75
2022/03/16 06:35:28;;;;;;;28.00;16.70;;;;;;;5.73;67.34;98737.09;106138;1274;25550;-77
2022/03/16 06:37:54;;;;;;;30.80;17.50;;;;;;;5.79;67.47;98740.34;106124;1273;138673;-76
2022/03/16 06:40:21;;;;;;;28.70;16.50;;;;;;;5.85;67.51;98744.13;106406;1274;25573;-76
2022/03/16 06:42:51;;;;;;;31.30;16.50;;;;;;;5.89;67.51;98745.23;106147;1274;25266;-76
2022/03/16 06:45:20;;;;;;;39.60;18.60;;;;;;;5.93;67.28;98744.10;106158;1273;137646;-76
2022/03/16 06:47:48;;;;;;;36.00;18.80;;;;;;;5.99;67.20;98753.06;106380;1274;22547;-76
2022/03/16 06:50:15;;;;;;;26.70;14.40;;;;;;;6.03;66.92;98760.38;105647;1277;138178;-76
2022/03/16 06:52:42;;;;;;;28.00;17.20;;;;;;;6.09;66.68;98767.06;106168;1274;24373;-76
2022/03/16 06:55:09;;;;;;;28.30;15.30;;;;;;;6.14;66.78;98773.89;105911;1278;22561;-76
2022/03/16 06:57:36;;;;;;;28.10;15.70;;;;;;;6.19;66.54;98778.05;106107;1274;138129;-76
2022/03/16 07:00:06;;;;;;;29.00;15.30;;;;;;;6.23;66.24;98778.72;106047;1273;22602;-77
2022/03/16 07:02:53;;;;;;;34.40;15.70;;;;;;;6.28;66.18;98774.14;106326;1273;137629;-77
2022/03/16 07:05:21;;;;;;;31.70;16.90;;;;;;;6.33;66.18;98776.96;106631;1273;22548;-77
2022/03/16 07:07:48;;;;;;;30.50;17.50;;;;;;;6.37;66.33;98776.22;106394;1274;137911;-76
2022/03/16 07:10:16;;;;;;;26.90;16.70;;;;;;;6.42;66.53;98778.98;106227;1277;22633;-77
2022/03/16 07:12:46;;;;;;;27.50;17.70;;;;;;;6.46;66.36;98766.88;106475;1274;24415;-78
2022/03/16 07:15:24;;;;;;;26.30;16.00;;;;;;;6.53;66.34;98766.86;106255;1274;138461;-79
2022/03/16 07:17:52;;;;;;;28.80;17.20;;;;;;;6.59;66.47;98775.30;106254;1277;25468;-77
2022/03/16 07:20:19;;;;;;;31.90;18.40;;;;;;;6.66;66.57;98782.81;106410;1274;137902;-77
2022/03/16 07:22:59;;;;;;;31.30;19.10;;;;;;;6.74;66.77;98788.76;106538;1273;25269;-77
2022/03/16 07:25:29;;;;;;;34.00;19.50;;;;;;;6.83;66.87;98799.80;106209;1274;137915;-75
2022/03/16 07:27:57;;;;;;;33.80;18.70;;;;;;;6.93;67.08;98804.02;106123;1274;23326;-77
2022/03/16 07:30:24;;;;;;;34.70;20.00;;;;;;;7.04;67.13;98813.33;106172;1274;22717;-78
2022/03/16 07:32:51;;;;;;;27.40;18.00;;;;;;;7.15;66.94;98817.54;106172;1277;137625;-77
2022/03/16 07:35:24;;;;;;;34.00;20.70;;;;;;;7.24;66.95;98820.84;107453;1274;22553;-73
2022/03/16 07:37:52;;;;;;;34.30;19.30;;;;;;;7.34;66.78;98822.67;106453;1274;138168;-75
2022/03/16 07:40:19;;;;;;;29.10;17.90;;;;;;;7.44;66.83;98828.71;107181;1274;22563;-75
2022/03/16 07:42:48;;;;;;;28.10;17.90;;;;;;;7.53;66.28;98832.42;106683;1273;22827;-75
2022/03/16 07:45:18;;;;;;;29.40;18.10;;;;;;;7.58;65.84;98839.52;106911;1274;137739;-76
2022/03/16 07:47:59;;;;;;;34.20;21.00;;;;;;;7.62;65.34;98845.76;106916;1274;22546;-75
2022/03/16 07:50:27;;;;;;;56.20;29.80;;;;;;;7.59;61.28;98851.15;106701;1274;138672;-77
2022/03/16 07:52:55;;;;;;;47.80;26.10;;;;;;;7.57;59.97;98851.67;106399;1274;26698;-76
2022/03/16 07:55:22;;;;;;;44.50;25.90;;;;;;;7.51;57.81;98849.57;106992;1274;137797;-75
2022/03/16 07:57:49;;;;;;;51.30;26.90;;;;;;;7.43;55.98;98853.05;107032;1274;26648;-74
2022/03/16 08:00:30;;;;;;;46.80;25.90;;;;;;;7.29;54.31;98847.02;106521;1273;24082;-75
2022/03/16 08:03:01;;;;;;;39.80;23.30;;;;;;;7.17;53.28;98840.45;106694;1274;137779;-75
2022/03/16 08:05:28;;;;;;;43.30;25.60;;;;;;;7.09;53.81;98842.34;106218;1273;22569;-75
2022/03/16 08:07:55;;;;;;;37.80;21.60;;;;;;;7.07;52.83;98851.95;106206;1275;138254;-75
2022/03/16 08:10:22;;;;;;;47.60;25.30;;;;;;;7.06;51.85;98860.77;106654;1274;22568;-74
2022/03/16 08:12:48;;;;;;;39.60;21.10;;;;;;;7.02;50.95;98860.29;106275;1274;24398;-74
2022/03/16 08:15:15;;;;;;;41.50;22.30;;;;;;;7.01;51.23;98859.23;106319;1274;137760;-75
2022/03/16 08:17:41;;;;;;;44.40;25.60;;;;;;;7.00;51.35;98864.04;106033;1275;25530;-74
2022/03/16 08:20:09;;;;;;;40.40;23.90;;;;;;;7.00;51.53;98866.63;106092;1274;137684;-75
2022/03/16 08:22:36;;;;;;;39.20;23.90;;;;;;;7.01;51.08;98861.05;106041;1277;22563;-75
2022/03/16 08:25:17;;;;;;;40.90;23.20;;;;;;;7.03;51.74;98862.53;105897;1278;138005;-74
2022/03/16 08:27:44;;;;;;;44.60;24.50;;;;;;;7.05;51.27;98865.39;105969;1275;23970;-74
2022/03/16 08:30:11;;;;;;;46.70;26.00;;;;;;;7.07;51.34;98863.20;106078;1274;24206;-76
2022/03/16 08:32:52;;;;;;;43.00;20.90;;;;;;;7.09;50.96;98860.65;105896;1277;138737;-75
2022/03/16 08:35:34;;;;;;;43.10;20.40;;;;;;;7.09;49.40;98857.64;106063;1274;22733;-75
2022/03/16 08:38:01;;;;;;;37.90;21.80;;;;;;;7.07;49.39;98858.94;106242;1274;137795;-75
2022/03/16 08:40:27;;;;;;;44.10;22.20;;;;;;;7.09;49.22;98869.51;106279;1274;22576;-76
2022/03/16 08:42:54;;;;;;;33.00;20.40;;;;;;;7.12;49.92;98877.59;105894;1275;24269;-76
2022/03/16 08:45:21;;;;;;;35.90;20.30;;;;;;;7.18;49.98;98874.41;105961;1274;137876;-75
2022/03/16 08:48:02;;;;;;;37.40;21.30;;;;;;;7.27;49.74;98880.05;106226;1274;22551;-75
2022/03/16 08:50:30;;;;;;;41.40;23.60;;;;;;;7.33;49.20;98879.28;105937;1274;137697;-75
2022/03/16 08:52:57;;;;;;;38.30;21.60;;;;;;;7.37;49.58;98877.01;105914;1275;25254;-76
2022/03/16 08:55:24;;;;;;;38.80;21.80;;;;;;;7.41;49.80;98885.17;105973;1277;137923;-76
2022/03/16 08:57:50;;;;;;;39.00;23.90;;;;;;;7.42;49.27;98888.96;105971;1278;24416;-76
2022/03/16 09:00:18;;;;;;;39.40;23.10;;;;;;;7.46;49.62;98889.38;106136;1274;22727;-76
2022/03/16 09:02:46;;;;;;;41.50;23.10;;;;;;;7.52;50.11;98890.19;106001;1274;137745;-75
2022/03/16 09:05:14;;;;;;;39.80;24.00;;;;;;;7.56;49.03;98890.11;106173;1274;22622;-75
2022/03/16 09:07:41;;;;;;;45.40;23.80;;;;;;;7.57;48.70;98890.82;105907;1274;138096;-76
2022/03/16 09:10:08;;;;;;;42.10;22.60;;;;;;;7.61;48.54;98890.73;105894;1277;24238;-76
2022/03/16 09:12:37;;;;;;;44.20;23.80;;;;;;;7.65;48.39;98900.30;105930;1276;24375;-76
2022/03/16 09:15:04;;;;;;;45.60;25.50;;;;;;;7.71;49.02;98902.43;105594;1277;324754;-76
2022/03/16 09:17:46;;;;;;;41.80;24.50;;;;;;;7.81;49.18;98900.60;105906;1278;26618;-75
2022/03/16 09:20:12;;;;;;;45.20;25.40;;;;;;;7.88;49.44;98903.73;105964;1276;138075;-77
2022/03/16 09:22:38;;;;;;;42.70;23.70;;;;;;;7.94;49.28;98909.00;106060;1274;22544;-75
2022/03/16 09:25:07;;;;;;;46.10;24.60;;;;;;;7.95;48.27;98912.05;105943;1274;25373;-76
2022/03/16 09:27:35;;;;;;;41.50;23.50;;;;;;;7.97;48.27;98916.48;105959;1274;137849;-77
2022/03/16 09:30:03;;;;;;;42.50;25.00;;;;;;;8.04;48.03;98925.60;106202;1273;24271;-75
2022/03/16 09:32:30;;;;;;;38.50;23.30;;;;;;;8.10;47.38;98928.86;106149;1274;137773;-76
2022/03/16 09:34:59;;;;;;;46.80;26.00;;;;;;;8.20;47.30;98930.42;105987;1274;24071;-75
2022/03/16 09:37:26;;;;;;;42.30;24.10;;;;;;;8.32;46.91;98939.03;106195;1274;137907;-75
2022/03/16 09:39:53;;;;;;;40.00;23.10;;;;;;;8.44;47.05;98942.31;106208;1275;24387;-75
2022/03/16 09:42:29;;;;;;;41.20;23.10;;;;;;;8.59;47.04;98943.73;106216;1274;25379;-75
2022/03/16 09:45:01;;;;;;;38.80;22.70;;;;;;;8.74;46.53;98946.42;105854;1274;138154;-75
2022/03/16 09:47:44;;;;;;;37.90;23.10;;;;;;;8.87;46.11;98951.38;106266;1274;23144;-76
2022/03/16 09:50:11;;;;;;;39.80;21.90;;;;;;;8.97;45.60;98954.29;106076;1273;138127;-76
2022/03/16 09:52:39;;;;;;;31.80;20.30;;;;;;;9.01;45.31;98956.80;106334;1274;23969;-75
2022/03/16 09:55:07;;;;;;;44.70;23.60;;;;;;;9.05;45.55;98962.50;106280;1274;22563;-75
2022/03/16 09:57:33;;;;;;;36.60;21.80;;;;;;;9.06;44.96;98966.04;106256;1274;137722;-75
2022/03/16 10:00:03;;;;;;;39.10;23.50;;;;;;;9.03;45.16;98970.58;106326;1273;22564;-75
2022/03/16 10:02:31;;;;;;;35.10;21.90;;;;;;;9.05;45.08;98974.86;106212;1273;137939;-75
2022/03/16 10:04:58;;;;;;;38.00;21.90;;;;;;;9.10;44.79;98978.61;105993;1275;22576;-75
2022/03/16 10:07:39;;;;;;;41.50;24.40;;;;;;;9.20;44.50;98981.92;105833;1276;138294;-77
2022/03/16 10:15:38;;;;;;;40.50;23.50;;;;;;;9.68;44.40;98992.06;106183;1273;139634;-75
2022/03/16 10:18:05;;;;;;;36.00;22.20;;;;;;;9.80;44.49;98994.36;106101;1274;22560;-76
2022/03/16 10:20:34;;;;;;;36.60;24.00;;;;;;;9.92;44.59;99000.91;106135;1273;137789;-75
2022/03/16 10:23:21;;;;;;;37.00;21.80;;;;;;;10.04;43.97;99002.45;105946;1274;30238;-75
2022/03/16 10:25:53;;;;;;;40.80;22.80;;;;;;;10.06;43.06;99006.11;105934;1274;138588;-75
2022/03/16 10:28:26;;;;;;;34.30;22.30;;;;;;;10.01;42.70;99005.20;106150;1277;22626;-75
2022/03/16 10:30:57;;;;;;;39.30;22.30;;;;;;;10.01;42.68;99012.82;106138;1274;24254;-75
2022/03/16 10:33:26;;;;;;;37.30;23.30;;;;;;;10.03;42.67;99011.38;105837;1274;138151;-76
2022/03/16 10:36:14;;;;;;;35.50;20.60;;;;;;;10.09;42.82;99009.84;106249;1273;22537;-75
2022/03/16 10:38:44;;;;;;;36.40;22.30;;;;;;;10.14;41.97;99012.20;105930;1275;138156;-75
2022/03/16 10:41:13;;;;;;;36.10;21.80;;;;;;;10.13;41.76;99009.08;105958;1276;23943;-75
2022/03/16 10:46:38;;;;;;;34.60;22.10;;;;;;;10.04;41.55;99012.70;105977;1274;22564;-74
2022/03/16 10:49:09;;;;;;;34.90;22.30;;;;;;;10.08;42.08;99014.87;106189;1274;25372;-75
2022/03/16 10:51:37;;;;;;;35.00;22.60;;;;;;;10.21;42.57;99020.91;106062;1275;138016;-75
2022/03/16 10:54:05;;;;;;;31.30;21.70;;;;;;;10.39;41.83;99017.91;106035;1274;24238;-75
2022/03/16 10:56:32;;;;;;;38.60;21.10;;;;;;;10.55;41.62;99016.02;105981;1274;138108;-75
2022/03/16 10:59:00;;;;;;;36.50;22.20;;;;;;;10.72;41.54;99023.15;105990;1277;24211;-75
2022/03/16 11:01:42;;;;;;;37.90;23.10;;;;;;;10.87;41.54;99024.06;105875;1275;138255;-75
2022/03/16 11:04:09;;;;;;;35.80;23.80;;;;;;;10.98;41.61;99024.25;105960;1277;22550;-75
2022/03/16 11:06:36;;;;;;;40.30;25.30;;;;;;;11.11;41.36;99026.91;105959;1274;26494;-75
2022/03/16 11:09:03;;;;;;;36.20;23.40;;;;;;;11.21;41.21;99024.86;105980;1274;138676;-75
2022/03/16 11:14:17;;;;;;;40.50;23.70;;;;;;;11.47;41.31;99033.28;105895;1275;138134;-75
2022/03/16 11:16:44;;;;;;;40.40;24.30;;;;;;;11.59;41.90;99036.38;106025;1274;22829;-76
2022/03/16 11:19:14;;;;;;;38.60;24.90;;;;;;;11.70;41.65;99036.33;105930;1276;24098;-75
2022/03/16 11:21:53;;;;;;;37.60;25.70;;;;;;;11.80;41.36;99037.76;106056;1276;137929;-75
2022/03/16 11:24:24;;;;;;;37.70;25.60;;;;;;;11.93;40.71;99038.66;105952;1276;22633;-75
2022/03/16 11:27:11;;;;;;;40.80;27.10;;;;;;;11.99;40.17;99042.71;106021;1276;138478;-75
2022/03/16 11:29:49;;;;;;;40.20;25.10;;;;;;;12.05;40.40;99038.56;105955;1277;22618;-76
2022/03/16 11:32:19;;;;;;;39.80;24.60;;;;;;;12.17;40.38;99041.13;106009;1274;138014;-75